Catàleg de serveis del Meteocat
Campanya meteocatpedra

Dades de l'estació automàtica Golmés

?
?
Resum diari 21:30 TU
Dades diàries de l'estació meteorològica
Temperatura mitjana 23.9 °C
Temperatura màxima 30.7 °C 16:02 TU
Temperatura mínima 17.0 °C 1:08 TU
Humitat relativa mitjana 67%
Precipitació acumulada 0.0 mm
Ratxa màxima del vent (2 m) 19.4 km/h - 275º 11:20 TU
Irradiació solar global 29.1 MJ/m2

El tram horari està expressat en Temps Universal (TU). Cal sumar una hora en horari d'hivern i dues en horari d'estiu per passar a l'hora oficial.

Golmés

Metadades estació meteorol´gica
Municipi Golmés
Comarca Pla d'Urgell
Altitud 261 m
Data alta 08.08.2000
Estat actual Operativa
Dades de període
Període
TU
TM
°C
TX
°C
TN
°C
HRM
%
PPT
mm
VVM (2 m)
km/h
DVM (2 m)
graus
VVX (2 m)
km/h
RS
W/m2
00:00 - 00:30 17.9 18.0 17.9 88 0.0 1.8 76 4.0 0
00:30 - 01:00 17.5 17.9 17.1 93 0.0 0.7 172 3.2 0
01:00 - 01:30 17.1 17.2 17.0 95 0.0 0.7 160 3.2 0
01:30 - 02:00 17.2 17.3 17.1 94 0.0 0.4 135 2.5 0
02:00 - 02:30 17.5 17.7 17.3 91 0.0 0.7 93 2.9 0
02:30 - 03:00 17.7 18.5 17.3 91 0.0 1.4 143 5.4 0
03:00 - 03:30 18.4 18.6 18.3 89 0.0 1.8 172 4.3 0
03:30 - 04:00 18.3 18.7 18.1 91 0.0 3.2 203 6.5 0
04:00 - 04:30 18.9 19.1 18.7 87 0.0 5.0 214 13.0 0
04:30 - 05:00 19.0 19.1 18.9 85 0.0 4.3 232 10.4 5
05:00 - 05:30 18.8 19.0 18.7 84 0.0 4.0 265 10.1 31
05:30 - 06:00 18.8 19.1 18.5 85 0.0 4.3 277 10.1 79
06:00 - 06:30 19.5 20.0 19.1 81 0.0 4.3 258 11.9 159
06:30 - 07:00 20.3 20.6 20.1 75 0.0 5.8 232 13.0 290
07:00 - 07:30 21.1 21.4 20.7 74 0.0 5.4 247 14.0 393
07:30 - 08:00 21.7 22.1 21.3 71 0.0 5.8 235 18.0 498
08:00 - 08:30 22.4 22.9 22.0 69 0.0 6.5 242 16.2 589
08:30 - 09:00 22.9 23.2 22.6 67 0.0 8.3 261 19.1 671
09:00 - 09:30 23.6 23.9 23.2 65 0.0 7.6 268 18.0 745
09:30 - 10:00 24.1 24.5 23.7 64 0.0 7.6 265 18.7 805
10:00 - 10:30 24.6 25.2 24.2 63 0.0 7.6 270 17.3 865
10:30 - 11:00 25.4 25.8 24.9 60 0.0 8.3 274 16.9 908
11:00 - 11:30 25.9 26.7 25.5 58 0.0 8.6 276 19.4 933
11:30 - 12:00 26.7 27.3 26.4 57 0.0 7.2 263 15.8 949
12:00 - 12:30 27.3 27.5 26.9 55 0.0 8.3 275 18.7 947
12:30 - 13:00 27.9 28.4 27.4 53 0.0 7.6 275 16.2 943
13:00 - 13:30 28.5 29.2 28.2 51 0.0 6.5 269 17.3 915
13:30 - 14:00 29.0 29.7 28.7 50 0.0 6.1 266 16.6 881
14:00 - 14:30 29.5 29.8 29.2 48 0.0 6.5 275 14.8 813
14:30 - 15:00 29.8 30.3 29.3 45 0.0 6.1 273 13.7 744
15:00 - 15:30 29.9 30.2 29.6 43 0.0 6.5 277 18.4 662
15:30 - 16:00 30.2 30.5 30.1 42 0.0 5.0 271 12.2 604
16:00 - 16:30 30.4 30.7 30.0 42 0.0 5.8 265 12.6 530
16:30 - 17:00 30.3 30.4 30.2 42 0.0 6.1 278 13.7 431
17:00 - 17:30 30.3 30.5 30.1 42 0.0 5.4 270 12.6 336
17:30 - 18:00 30.2 30.5 30.1 44 0.0 2.9 268 9.7 238
18:00 - 18:30 30.0 30.4 29.7 45 0.0 1.1 269 5.8 143
18:30 - 19:00 28.9 30.7 26.2 55 0.0 0.0 268 1.4 63
19:00 - 19:30 26.8 27.2 25.9 54 0.0 6.1 113 13.3 12
19:30 - 20:00 25.3 26.0 24.4 60 0.0 6.1 128 12.2 0
20:00 - 20:30 24.1 24.7 23.2 67 0.0 5.0 142 11.5 0
20:30 - 21:00 23.2 23.4 23.0 74 0.0 4.7 153 9.4 0
21:00 - 21:30 23.0 23.2 22.8 78 0.0 5.4 155 10.4 0
21:30 - 22:00 22.4 22.7 21.5 82 0.0 2.9 132 7.9 0

Les dades en taronja només han passat un control de qualitat automàtic. Resta pendent la seva validació definitiva.